This is the latest recevied weather packets stored in our database for station/object 7M1JBF-11. If no packets are shown the sender has not sent any weather packets the latest 1 day(s).
| Time | Temp. | Humidity | Pressure | Rain* | Wind** | Luminosity | Snow |
|---|---|---|---|---|---|---|---|
| 1778040055 | 22.22° C | 100% | 1019.7 hPa | 0 mm | 2.24 m/s, 225° | - | - |
| 1778039454 | 22.22° C | 100% | 1019.8 hPa | 0 mm | 3.58 m/s, 211° | - | - |
| 1778038853 | 22.22° C | 100% | 1019.8 hPa | 0 mm | 4.02 m/s, 229° | - | - |
| 1778038251 | 22.22° C | 100% | 1019.8 hPa | 0 mm | 2.24 m/s, 218° | - | - |
| 1778037650 | 22.22° C | 100% | 1019.7 hPa | 0 mm | 2.24 m/s, 125° | - | - |
| 1778037048 | 22.22° C | 100% | 1020.1 hPa | 0 mm | 3.13 m/s, 225° | - | - |
| 1778036447 | 22.22° C | 100% | 1020 hPa | 0 mm | 0.89 m/s, 92° | - | - |
| 1778035846 | 22.78° C | 100% | 1020.2 hPa | 0 mm | 1.34 m/s, 202° | - | - |
| 1778035244 | 22.78° C | 100% | 1020.4 hPa | 0 mm | 4.02 m/s, 231° | - | - |
| 1778034643 | 22.78° C | 100% | 1020.3 hPa | 0 mm | 1.34 m/s, 127° | - | - |
| 1778034042 | 22.78° C | 100% | 1020.7 hPa | 0 mm | 2.68 m/s, 210° | - | - |
| 1778033440 | 22.78° C | 100% | 1020.8 hPa | 0 mm | 4.02 m/s, 229° | - | - |
| 1778032839 | 23.33° C | 100% | 1020.9 hPa | 0 mm | 1.34 m/s, 227° | - | - |
| 1778031035 | 24.44° C | 100% | 1021.5 hPa | 0 mm | 1.79 m/s, 202° | - | - |
| 1778029832 | 22.22° C | 100% | 1021.6 hPa | 0 mm | 0 m/s | - | - |
| 1778028629 | 21.11° C | 100% | 1021.9 hPa | 0 mm | 0 m/s | - | - |
| 1778028028 | 20.56° C | 100% | 1022 hPa | 0 mm | 0 m/s | - | - |
| 1778027427 | 20.56° C | 100% | 1022.2 hPa | 0 mm | 0 m/s | - | - |
| 1778026825 | 20.56° C | 100% | 1022.4 hPa | 0 mm | 0 m/s | - | - |
| 1778026224 | 20.56° C | 100% | 1022.4 hPa | 0 mm | 0 m/s | - | - |
| 1778025623 | 20.56° C | 100% | 1022.4 hPa | 0 mm | 0 m/s | - | - |
| 1778025021 | 20.56° C | 100% | 1022.3 hPa | 0 mm | 0 m/s | - | - |
| 1778024420 | 20.56° C | 100% | 1022.2 hPa | 0 mm | 0 m/s | - | - |
| 1778023819 | 20° C | 100% | 1022.3 hPa | 0 mm | 0 m/s | - | - |
| 1778023217 | 20° C | 100% | 1022.5 hPa | 0 mm | 0 m/s | - | - |
* Rain since midnight (hover to see other rain measurements)
** Current wind speed in m/s (hover to see current wind gust speed)